Terminal Aerodrome Forecast
Issued by NWS

Home | Current Version | Previous Version | Text Only | Print | Product List | Glossary Off
Versions: 1 2 3 4 5 6 7 8 9 10 11 12 13 14 15 16 17 18 19

000
FTUS41 KCLE 192344
TAFFDY
TAF
KFDY 192344Z 2000/2024 VRB03KT P6SM OVC250
     FM200500 09007KT P6SM OVC080
     FM200700 09007KT 4SM BR OVC025
     FM200800 09007KT 5SM -RA BR OVC015
     FM200900 10008KT 1 1/2SM -RA BR OVC007
     FM201600 21008KT 4SM BR OVC005
      TEMPO 2016/2017 4SM -RA BR=

USA.gov is the U.S. government's official web portal to all federal, state and local government web resources and services.